sensor_id;sensor_type;location;lat;lon;timestamp;pressure;altitude;pressure_sealevel;temperature;humidity
75650;BME280;64245;51.282;22.494;2022-12-05T00:00:27;100199.13;;;-1.12;91.90
75650;BME280;64245;51.282;22.494;2022-12-05T00:03:06;100199.06;;;-1.10;91.68
75650;BME280;64245;51.282;22.494;2022-12-05T00:05:32;100209.50;;;-1.06;92.15
75650;BME280;64245;51.282;22.494;2022-12-05T00:07:58;100207.81;;;-1.08;91.93
75650;BME280;64245;51.282;22.494;2022-12-05T00:10:23;100186.13;;;-1.18;91.92
75650;BME280;64245;51.282;22.494;2022-12-05T00:12:49;100203.50;;;-1.11;92.00
75650;BME280;64245;51.282;22.494;2022-12-05T00:15:15;100214.78;;;-1.06;92.46
75650;BME280;64245;51.282;22.494;2022-12-05T00:17:40;100215.66;;;-1.05;91.14
75650;BME280;64245;51.282;22.494;2022-12-05T00:20:07;100224.41;;;-1.03;91.87
75650;BME280;64245;51.282;22.494;2022-12-05T00:22:37;100206.03;;;-1.08;91.74
75650;BME280;64245;51.282;22.494;2022-12-05T00:25:05;100212.00;;;-1.01;91.51
75650;BME280;64245;51.282;22.494;2022-12-05T00:27:31;100211.41;;;-1.11;91.84
75650;BME280;64245;51.282;22.494;2022-12-05T00:29:57;100212.06;;;-1.02;91.67
75650;BME280;64245;51.282;22.494;2022-12-05T00:32:23;100222.53;;;-0.99;91.72
75650;BME280;64245;51.282;22.494;2022-12-05T00:34:48;100209.41;;;-1.02;91.82
75650;BME280;64245;51.282;22.494;2022-12-05T00:37:14;100204.22;;;-1.06;91.80
75650;BME280;64245;51.282;22.494;2022-12-05T00:39:40;100188.25;;;-1.02;91.35
75650;BME280;64245;51.282;22.494;2022-12-05T00:42:05;100194.59;;;-1.08;91.55
75650;BME280;64245;51.282;22.494;2022-12-05T00:44:31;100205.44;;;-0.89;91.87
75650;BME280;64245;51.282;22.494;2022-12-05T00:46:57;100207.69;;;-1.03;91.89
75650;BME280;64245;51.282;22.494;2022-12-05T00:49:23;100184.13;;;-1.11;91.65
75650;BME280;64245;51.282;22.494;2022-12-05T00:51:48;100185.00;;;-1.11;92.30
75650;BME280;64245;51.282;22.494;2022-12-05T00:54:15;100184.94;;;-1.09;91.92
75650;BME280;64245;51.282;22.494;2022-12-05T00:56:43;100214.66;;;-1.01;91.67
75650;BME280;64245;51.282;22.494;2022-12-05T00:59:14;100208.53;;;-1.03;91.76
75650;BME280;64245;51.282;22.494;2022-12-05T01:01:42;100199.97;;;-1.11;92.09
75650;BME280;64245;51.282;22.494;2022-12-05T01:04:11;100214.69;;;-1.02;92.11
75650;BME280;64245;51.282;22.494;2022-12-05T01:06:38;100191.88;;;-1.05;92.05
75650;BME280;64245;51.282;22.494;2022-12-05T01:09:04;100193.69;;;-1.07;91.68
75650;BME280;64245;51.282;22.494;2022-12-05T01:11:31;100195.22;;;-1.00;92.01
75650;BME280;64245;51.282;22.494;2022-12-05T01:13:57;100203.06;;;-0.97;91.93
75650;BME280;64245;51.282;22.494;2022-12-05T01:16:34;100183.75;;;-0.99;91.96
75650;BME280;64245;51.282;22.494;2022-12-05T01:19:07;100189.78;;;-0.95;91.66
75650;BME280;64245;51.282;22.494;2022-12-05T01:21:33;100180.47;;;-1.07;91.90
75650;BME280;64245;51.282;22.494;2022-12-05T01:23:59;100206.66;;;-0.99;91.89
75650;BME280;64245;51.282;22.494;2022-12-05T01:26:25;100186.47;;;-1.02;91.93
75650;BME280;64245;51.282;22.494;2022-12-05T01:28:51;100179.50;;;-1.05;91.59
75650;BME280;64245;51.282;22.494;2022-12-05T01:31:29;100188.97;;;-0.97;91.78
75650;BME280;64245;51.282;22.494;2022-12-05T01:33:57;100192.63;;;-1.01;92.04
75650;BME280;64245;51.282;22.494;2022-12-05T01:36:23;100198.00;;;-1.05;92.02
75650;BME280;64245;51.282;22.494;2022-12-05T01:38:50;100199.94;;;-1.10;91.89
75650;BME280;64245;51.282;22.494;2022-12-05T01:41:18;100183.34;;;-1.15;91.87
75650;BME280;64245;51.282;22.494;2022-12-05T01:43:55;100204.22;;;-1.06;92.39
75650;BME280;64245;51.282;22.494;2022-12-05T01:46:22;100201.13;;;-0.92;92.08
75650;BME280;64245;51.282;22.494;2022-12-05T01:48:49;100196.84;;;-0.96;91.71
75650;BME280;64245;51.282;22.494;2022-12-05T01:51:16;100191.81;;;-1.03;91.89
75650;BME280;64245;51.282;22.494;2022-12-05T01:53:42;100175.44;;;-1.15;92.61
75650;BME280;64245;51.282;22.494;2022-12-05T01:56:08;100194.28;;;-0.97;92.31
75650;BME280;64245;51.282;22.494;2022-12-05T01:58:36;100195.13;;;-0.97;92.02
75650;BME280;64245;51.282;22.494;2022-12-05T02:01:03;100201.22;;;-0.95;92.22
75650;BME280;64245;51.282;22.494;2022-12-05T02:03:29;100184.94;;;-1.09;92.27
75650;BME280;64245;51.282;22.494;2022-12-05T02:05:57;100179.59;;;-1.08;92.02
75650;BME280;64245;51.282;22.494;2022-12-05T02:08:26;100174.94;;;-0.99;91.77
75650;BME280;64245;51.282;22.494;2022-12-05T02:10:54;100167.13;;;-1.02;92.00
75650;BME280;64245;51.282;22.494;2022-12-05T02:16:14;100165.44;;;-1.05;92.15
75650;BME280;64245;51.282;22.494;2022-12-05T02:21:38;100161.47;;;-1.18;92.46
75650;BME280;64245;51.282;22.494;2022-12-05T02:24:35;100166.53;;;-1.12;92.61
75650;BME280;64245;51.282;22.494;2022-12-05T02:35:38;100155.72;;;-1.05;92.33
75650;BME280;64245;51.282;22.494;2022-12-05T02:38:45;100142.97;;;-1.18;93.08
75650;BME280;64245;51.282;22.494;2022-12-05T02:41:23;100131.44;;;-1.16;92.68
75650;BME280;64245;51.282;22.494;2022-12-05T02:43:57;100134.91;;;-1.15;92.83
75650;BME280;64245;51.282;22.494;2022-12-05T02:46:27;100139.16;;;-1.10;93.00
75650;BME280;64245;51.282;22.494;2022-12-05T02:48:58;100139.41;;;-1.17;92.89
75650;BME280;64245;51.282;22.494;2022-12-05T02:51:28;100121.22;;;-1.26;93.48
75650;BME280;64245;51.282;22.494;2022-12-05T02:53:58;100134.13;;;-1.17;93.08
75650;BME280;64245;51.282;22.494;2022-12-05T02:56:26;100141.84;;;-1.11;93.12
75650;BME280;64245;51.282;22.494;2022-12-05T02:58:54;100139.38;;;-1.16;93.03
75650;BME280;64245;51.282;22.494;2022-12-05T03:01:23;100136.88;;;-1.20;93.14
75650;BME280;64245;51.282;22.494;2022-12-05T03:03:49;100140.19;;;-1.15;93.65
75650;BME280;64245;51.282;22.494;2022-12-05T03:06:20;100119.28;;;-1.21;93.10
75650;BME280;64245;51.282;22.494;2022-12-05T03:08:55;100126.31;;;-1.20;93.61
75650;BME280;64245;51.282;22.494;2022-12-05T03:11:22;100106.25;;;-1.27;93.43
75650;BME280;64245;51.282;22.494;2022-12-05T03:13:51;100118.28;;;-1.17;93.89
75650;BME280;64245;51.282;22.494;2022-12-05T03:16:28;100121.50;;;-1.09;92.86
75650;BME280;64245;51.282;22.494;2022-12-05T03:19:02;100102.81;;;-1.29;93.84
75650;BME280;64245;51.282;22.494;2022-12-05T03:21:39;100125.16;;;-1.13;93.36
75650;BME280;64245;51.282;22.494;2022-12-05T03:24:12;100122.75;;;-1.19;93.37
75650;BME280;64245;51.282;22.494;2022-12-05T03:26:49;100116.31;;;-1.12;93.74
75650;BME280;64245;51.282;22.494;2022-12-05T03:29:28;100106.84;;;-1.18;93.76
75650;BME280;64245;51.282;22.494;2022-12-05T03:32:16;100109.25;;;-1.12;93.69
75650;BME280;64245;51.282;22.494;2022-12-05T03:37:51;100109.81;;;-1.28;93.86
75650;BME280;64245;51.282;22.494;2022-12-05T03:42:53;100098.47;;;-1.32;94.33
75650;BME280;64245;51.282;22.494;2022-12-05T03:45:29;100097.53;;;-1.29;94.03
75650;BME280;64245;51.282;22.494;2022-12-05T03:48:08;100108.97;;;-1.29;93.75
75650;BME280;64245;51.282;22.494;2022-12-05T03:50:38;100097.75;;;-1.35;94.51
75650;BME280;64245;51.282;22.494;2022-12-05T03:53:15;100108.00;;;-1.26;94.03
75650;BME280;64245;51.282;22.494;2022-12-05T03:55:43;100109.78;;;-1.27;93.66
75650;BME280;64245;51.282;22.494;2022-12-05T03:58:22;100101.25;;;-1.35;93.98
75650;BME280;64245;51.282;22.494;2022-12-05T04:00:51;100106.31;;;-1.29;94.34
75650;BME280;64245;51.282;22.494;2022-12-05T04:03:23;100094.00;;;-1.30;93.93
75650;BME280;64245;51.282;22.494;2022-12-05T04:05:54;100109.63;;;-1.22;93.83
75650;BME280;64245;51.282;22.494;2022-12-05T04:08:27;100115.16;;;-1.30;94.29
75650;BME280;64245;51.282;22.494;2022-12-05T04:10:58;100090.88;;;-1.41;94.30
75650;BME280;64245;51.282;22.494;2022-12-05T04:13:38;100070.78;;;-1.47;94.06
75650;BME280;64245;51.282;22.494;2022-12-05T04:16:27;100086.34;;;-1.37;94.12
75650;BME280;64245;51.282;22.494;2022-12-05T04:22:22;100082.03;;;-1.40;94.06
75650;BME280;64245;51.282;22.494;2022-12-05T04:24:50;100110.53;;;-1.23;93.94
75650;BME280;64245;51.282;22.494;2022-12-05T04:30:23;100117.47;;;-1.19;94.33
75650;BME280;64245;51.282;22.494;2022-12-05T04:38:12;100105.59;;;-1.34;93.83
75650;BME280;64245;51.282;22.494;2022-12-05T04:40:46;100105.41;;;-1.28;94.17
75650;BME280;64245;51.282;22.494;2022-12-05T04:43:14;100112.31;;;-1.24;94.58
75650;BME280;64245;51.282;22.494;2022-12-05T04:45:42;100088.09;;;-1.36;93.99
75650;BME280;64245;51.282;22.494;2022-12-05T04:48:13;100116.88;;;-1.29;93.60
75650;BME280;64245;51.282;22.494;2022-12-05T04:50:41;100103.53;;;-1.24;94.11
75650;BME280;64245;51.282;22.494;2022-12-05T04:53:11;100109.78;;;-1.27;94.22
75650;BME280;64245;51.282;22.494;2022-12-05T04:55:40;100096.75;;;-1.33;94.12
75650;BME280;64245;51.282;22.494;2022-12-05T04:58:12;100096.16;;;-1.41;94.36
75650;BME280;64245;51.282;22.494;2022-12-05T05:00:57;100116.75;;;-1.24;94.45
75650;BME280;64245;51.282;22.494;2022-12-05T05:03:41;100099.19;;;-1.27;94.64
75650;BME280;64245;51.282;22.494;2022-12-05T05:06:10;100090.69;;;-1.35;94.72
75650;BME280;64245;51.282;22.494;2022-12-05T05:08:55;100102.75;;;-1.28;94.31
75650;BME280;64245;51.282;22.494;2022-12-05T05:11:27;100102.66;;;-1.25;94.21
75650;BME280;64245;51.282;22.494;2022-12-05T05:13:53;100083.81;;;-1.41;94.60
75650;BME280;64245;51.282;22.494;2022-12-05T05:16:31;100100.38;;;-1.35;94.41
75650;BME280;64245;51.282;22.494;2022-12-05T05:18:57;100090.69;;;-1.35;94.65
75650;BME280;64245;51.282;22.494;2022-12-05T05:23:52;100120.06;;;-1.18;94.28
75650;BME280;64245;51.282;22.494;2022-12-05T05:26:19;100117.75;;;-1.28;94.17
75650;BME280;64245;51.282;22.494;2022-12-05T05:28:47;100113.38;;;-1.29;94.49
75650;BME280;64245;51.282;22.494;2022-12-05T05:31:13;100090.50;;;-1.30;94.07
75650;BME280;64245;51.282;22.494;2022-12-05T05:33:39;100093.56;;;-1.16;93.88
75650;BME280;64245;51.282;22.494;2022-12-05T05:36:07;100078.31;;;-1.34;94.81
75650;BME280;64245;51.282;22.494;2022-12-05T05:38:37;100071.25;;;-1.34;94.45
75650;BME280;64245;51.282;22.494;2022-12-05T05:41:03;100095.44;;;-1.20;94.41
75650;BME280;64245;51.282;22.494;2022-12-05T05:43:29;100080.75;;;-1.28;94.34
75650;BME280;64245;51.282;22.494;2022-12-05T05:45:55;100063.50;;;-1.38;94.76
75650;BME280;64245;51.282;22.494;2022-12-05T05:48:21;100052.97;;;-1.40;94.67
75650;BME280;64245;51.282;22.494;2022-12-05T05:50:47;100064.19;;;-1.33;94.30
75650;BME280;64245;51.282;22.494;2022-12-05T05:53:12;100072.63;;;-1.22;94.51
75650;BME280;64245;51.282;22.494;2022-12-05T05:55:41;100067.44;;;-1.25;93.82
75650;BME280;64245;51.282;22.494;2022-12-05T05:58:07;100058.75;;;-1.29;94.29
75650;BME280;64245;51.282;22.494;2022-12-05T06:00:34;100076.19;;;-1.23;94.68
75650;BME280;64245;51.282;22.494;2022-12-05T06:02:59;100056.16;;;-1.30;94.37
75650;BME280;64245;51.282;22.494;2022-12-05T06:05:25;100063.16;;;-1.29;94.33
75650;BME280;64245;51.282;22.494;2022-12-05T06:07:52;100062.41;;;-1.33;94.20
75650;BME280;64245;51.282;22.494;2022-12-05T06:10:18;100057.34;;;-1.39;94.29
75650;BME280;64245;51.282;22.494;2022-12-05T06:12:43;100075.56;;;-1.31;94.50
75650;BME280;64245;51.282;22.494;2022-12-05T06:15:10;100079.31;;;-1.37;94.53
75650;BME280;64245;51.282;22.494;2022-12-05T06:17:36;100090.41;;;-1.27;94.64
75650;BME280;64245;51.282;22.494;2022-12-05T06:20:03;100087.09;;;-1.34;94.79
75650;BME280;64245;51.282;22.494;2022-12-05T06:22:29;100089.00;;;-1.37;95.20
75650;BME280;64245;51.282;22.494;2022-12-05T06:24:55;100076.44;;;-1.31;94.82
75650;BME280;64245;51.282;22.494;2022-12-05T06:27:21;100072.34;;;-1.40;94.62
75650;BME280;64245;51.282;22.494;2022-12-05T06:29:46;100098.38;;;-1.29;95.08
75650;BME280;64245;51.282;22.494;2022-12-05T06:32:12;100090.56;;;-1.32;95.34
75650;BME280;64245;51.282;22.494;2022-12-05T06:34:38;100075.56;;;-1.31;95.16
75650;BME280;64245;51.282;22.494;2022-12-05T06:37:03;100090.41;;;-1.27;94.87
75650;BME280;64245;51.282;22.494;2022-12-05T06:39:30;100075.56;;;-1.31;94.68
75650;BME280;64245;51.282;22.494;2022-12-05T06:41:55;100093.63;;;-1.18;94.97
75650;BME280;64245;51.282;22.494;2022-12-05T06:44:21;100094.78;;;-1.26;94.78
75650;BME280;64245;51.282;22.494;2022-12-05T06:46:49;100093.88;;;-1.25;95.27
75650;BME280;64245;51.282;22.494;2022-12-05T06:49:14;100091.38;;;-1.30;95.04
75650;BME280;64245;51.282;22.494;2022-12-05T06:51:40;100087.28;;;-1.38;95.04
75650;BME280;64245;51.282;22.494;2022-12-05T06:54:06;100081.75;;;-1.32;95.01
75650;BME280;64245;51.282;22.494;2022-12-05T06:56:31;100105.31;;;-1.25;95.29
75650;BME280;64245;51.282;22.494;2022-12-05T06:58:57;100089.53;;;-1.28;94.64
75650;BME280;64245;51.282;22.494;2022-12-05T07:01:23;100104.19;;;-1.18;95.17
75650;BME280;64245;51.282;22.494;2022-12-05T07:04:09;100093.88;;;-1.25;94.97
75650;BME280;64245;51.282;22.494;2022-12-05T07:06:35;100078.09;;;-1.28;94.66
75650;BME280;64245;51.282;22.494;2022-12-05T07:09:02;100093.56;;;-1.16;94.99
75650;BME280;64245;51.282;22.494;2022-12-05T07:11:28;100074.59;;;-1.29;95.04
75650;BME280;64245;51.282;22.494;2022-12-05T07:13:54;100084.97;;;-1.23;94.66
75650;BME280;64245;51.282;22.494;2022-12-05T07:16:20;100078.69;;;-1.19;94.67
75650;BME280;64245;51.282;22.494;2022-12-05T07:18:46;100092.38;;;-1.08;94.41
75650;BME280;64245;51.282;22.494;2022-12-05T07:21:13;100086.19;;;-1.07;94.23
75650;BME280;64245;51.282;22.494;2022-12-05T07:23:41;100099.53;;;-1.11;94.46
75650;BME280;64245;51.282;22.494;2022-12-05T07:26:09;100089.16;;;-1.16;94.98
75650;BME280;64245;51.282;22.494;2022-12-05T07:28:35;100091.47;;;-1.07;94.83
75650;BME280;64245;51.282;22.494;2022-12-05T07:31:05;100090.66;;;-1.09;94.43
75650;BME280;64245;51.282;22.494;2022-12-05T07:33:31;100075.00;;;-1.15;94.91
75650;BME280;64245;51.282;22.494;2022-12-05T07:36:02;100080.03;;;-1.07;94.85
75650;BME280;64245;51.282;22.494;2022-12-05T07:38:29;100061.19;;;-1.23;95.24
75650;BME280;64245;51.282;22.494;2022-12-05T07:40:55;100070.53;;;-1.13;94.85
75650;BME280;64245;51.282;22.494;2022-12-05T07:43:21;100062.41;;;-1.07;94.42
75650;BME280;64245;51.282;22.494;2022-12-05T07:45:46;100086.56;;;-0.92;94.11
75650;BME280;64245;51.282;22.494;2022-12-05T07:48:12;100084.16;;;-0.98;93.92
75650;BME280;64245;51.282;22.494;2022-12-05T07:50:38;100079.16;;;-1.08;94.18
75650;BME280;64245;51.282;22.494;2022-12-05T07:53:04;100073.72;;;-1.03;93.95
75650;BME280;64245;51.282;22.494;2022-12-05T07:55:29;100093.63;;;-0.93;94.22
75650;BME280;64245;51.282;22.494;2022-12-05T07:57:55;100092.91;;;-0.96;94.18
75650;BME280;64245;51.282;22.494;2022-12-05T08:00:21;100078.00;;;-0.99;94.26
75650;BME280;64245;51.282;22.494;2022-12-05T08:02:47;100077.72;;;-0.91;94.60
75650;BME280;64245;51.282;22.494;2022-12-05T08:05:13;100081.03;;;-0.85;93.75
75650;BME280;64245;51.282;22.494;2022-12-05T08:07:40;100067.28;;;-0.96;93.87
75650;BME280;64245;51.282;22.494;2022-12-05T08:10:07;100095.00;;;-0.81;94.09
75650;BME280;64245;51.282;22.494;2022-12-05T08:12:33;100099.38;;;-0.80;94.05
75650;BME280;64245;51.282;22.494;2022-12-05T08:14:58;100079.44;;;-0.90;94.19
75650;BME280;64245;51.282;22.494;2022-12-05T08:17:24;100088.94;;;-0.85;93.76
75650;BME280;64245;51.282;22.494;2022-12-05T08:19:51;100080.06;;;-0.82;94.05
75650;BME280;64245;51.282;22.494;2022-12-05T08:22:16;100072.53;;;-0.94;94.07
75650;BME280;64245;51.282;22.494;2022-12-05T08:24:42;100073.44;;;-0.95;94.36
75650;BME280;64245;51.282;22.494;2022-12-05T08:27:08;100095.81;;;-0.79;93.89
75650;BME280;64245;51.282;22.494;2022-12-05T08:29:34;100085.28;;;-0.81;94.31
75650;BME280;64245;51.282;22.494;2022-12-05T08:32:00;100081.72;;;-0.80;93.79
75650;BME280;64245;51.282;22.494;2022-12-05T08:34:25;100088.78;;;-0.80;93.61
75650;BME280;64245;51.282;22.494;2022-12-05T08:36:51;100067.13;;;-0.91;93.96
75650;BME280;64245;51.282;22.494;2022-12-05T08:39:18;100075.94;;;-0.91;93.84
75650;BME280;64245;51.282;22.494;2022-12-05T08:41:45;100062.13;;;-0.99;93.83
75650;BME280;64245;51.282;22.494;2022-12-05T08:44:12;100088.78;;;-0.80;93.98
75650;BME280;64245;51.282;22.494;2022-12-05T08:46:44;100067.38;;;-0.97;94.36
75650;BME280;64245;51.282;22.494;2022-12-05T08:49:10;100081.28;;;-0.92;94.46
75650;BME280;64245;51.282;22.494;2022-12-05T08:51:37;100081.13;;;-0.88;93.79
75650;BME280;64245;51.282;22.494;2022-12-05T08:54:06;100092.94;;;-0.73;93.81
75650;BME280;64245;51.282;22.494;2022-12-05T08:56:32;100070.34;;;-0.82;93.57
75650;BME280;64245;51.282;22.494;2022-12-05T08:58:58;100069.13;;;-0.73;93.58
75650;BME280;64245;51.282;22.494;2022-12-05T09:01:24;100080.25;;;-0.63;93.44
75650;BME280;64245;51.282;22.494;2022-12-05T09:03:55;100090.28;;;-0.48;93.31
75650;BME280;64245;51.282;22.494;2022-12-05T09:06:23;100080.44;;;-0.45;92.28
75650;BME280;64245;51.282;22.494;2022-12-05T09:08:53;100078.88;;;-0.50;92.74
75650;BME280;64245;51.282;22.494;2022-12-05T09:11:22;100069.84;;;-0.68;93.02
75650;BME280;64245;51.282;22.494;2022-12-05T09:13:49;100080.16;;;-0.60;93.54
75650;BME280;64245;51.282;22.494;2022-12-05T09:16:18;100071.41;;;-0.62;93.42
75650;BME280;64245;51.282;22.494;2022-12-05T09:18:44;100060.88;;;-0.64;92.85
75650;BME280;64245;51.282;22.494;2022-12-05T09:21:13;100057.06;;;-0.57;92.78
75650;BME280;64245;51.282;22.494;2022-12-05T09:23:39;100073.44;;;-0.46;93.05
75650;BME280;64245;51.282;22.494;2022-12-05T09:26:08;100063.56;;;-0.41;92.89
75650;BME280;64245;51.282;22.494;2022-12-05T09:28:35;100053.03;;;-0.42;92.54
75650;BME280;64245;51.282;22.494;2022-12-05T09:31:03;100039.69;;;-0.39;92.23
75650;BME280;64245;51.282;22.494;2022-12-05T09:33:31;100031.25;;;-0.50;91.98
75650;BME280;64245;51.282;22.494;2022-12-05T09:36:00;100034.25;;;-0.36;91.67
75650;BME280;64245;51.282;22.494;2022-12-05T09:38:26;100034.94;;;-0.31;92.33
75650;BME280;64245;51.282;22.494;2022-12-05T09:43:49;100057.44;;;-0.19;91.87
75650;BME280;64245;51.282;22.494;2022-12-05T09:46:26;100034.88;;;-0.29;92.19
75650;BME280;64245;51.282;22.494;2022-12-05T09:48:59;100038.59;;;-0.12;91.79
75650;BME280;64245;51.282;22.494;2022-12-05T09:51:26;100027.38;;;-0.18;91.97
75650;BME280;64245;51.282;22.494;2022-12-05T09:53:52;100046.94;;;0.01;91.08
75650;BME280;64245;51.282;22.494;2022-12-05T09:56:26;100041.41;;;0.07;90.89
75650;BME280;64245;51.282;22.494;2022-12-05T09:58:54;100036.44;;;-0.01;91.51
75650;BME280;64245;51.282;22.494;2022-12-05T10:04:11;100043.84;;;-0.10;91.62
75650;BME280;64245;51.282;22.494;2022-12-05T10:07:14;100037.50;;;-0.06;91.11
75650;BME280;64245;51.282;22.494;2022-12-05T10:17:53;100015.75;;;-0.14;91.54
75650;BME280;64245;51.282;22.494;2022-12-05T10:20:32;100007.22;;;-0.21;91.17
75650;BME280;64245;51.282;22.494;2022-12-05T10:23:04;100000.81;;;-0.15;90.77
75650;BME280;64245;51.282;22.494;2022-12-05T10:25:31;100012.94;;;-0.10;91.26
75650;BME280;64245;51.282;22.494;2022-12-05T10:28:02;99999.34;;;-0.01;91.48
75650;BME280;64245;51.282;22.494;2022-12-05T10:30:31;99984.50;;;-0.05;90.11
75650;BME280;64245;51.282;22.494;2022-12-05T10:33:00;99986.59;;;-0.13;90.33
75650;BME280;64245;51.282;22.494;2022-12-05T10:35:33;100002.91;;;0.20;90.76
75650;BME280;64245;51.282;22.494;2022-12-05T10:38:03;100006.41;;;0.21;90.64
75650;BME280;64245;51.282;22.494;2022-12-05T10:40:36;100006.91;;;0.09;90.90
75650;BME280;64245;51.282;22.494;2022-12-05T10:43:04;99998.00;;;0.11;90.87
75650;BME280;64245;51.282;22.494;2022-12-05T10:45:30;99968.13;;;0.08;90.42
75650;BME280;64245;51.282;22.494;2022-12-05T10:47:56;99960.28;;;0.05;90.74
75650;BME280;64245;51.282;22.494;2022-12-05T10:50:31;99995.22;;;0.14;89.99
75650;BME280;64245;51.282;22.494;2022-12-05T10:53:01;99963.28;;;-0.03;90.38
75650;BME280;64245;51.282;22.494;2022-12-05T10:55:35;99983.13;;;0.29;90.27
75650;BME280;64245;51.282;22.494;2022-12-05T10:58:13;99978.06;;;0.23;89.96
75650;BME280;64245;51.282;22.494;2022-12-05T11:00:47;99982.56;;;0.21;90.58
75650;BME280;64245;51.282;22.494;2022-12-05T11:03:28;99971.00;;;0.23;90.02
75650;BME280;64245;51.282;22.494;2022-12-05T11:05:57;99979.50;;;0.31;90.20
75650;BME280;64245;51.282;22.494;2022-12-05T11:08:25;99962.75;;;0.31;89.98
75650;BME280;64245;51.282;22.494;2022-12-05T11:11:04;99973.75;;;0.20;90.14
75650;BME280;64245;51.282;22.494;2022-12-05T11:13:31;99978.06;;;0.23;90.92
75650;BME280;64245;51.282;22.494;2022-12-05T11:15:57;99952.41;;;0.03;90.60
75650;BME280;64245;51.282;22.494;2022-12-05T11:20:49;99971.28;;;0.17;90.28
75650;BME280;64245;51.282;22.494;2022-12-05T11:23:27;99969.28;;;0.22;90.78
75650;BME280;64245;51.282;22.494;2022-12-05T11:25:55;99957.97;;;0.19;90.23
75650;BME280;64245;51.282;22.494;2022-12-05T11:28:36;99959.59;;;0.21;90.37
75650;BME280;64245;51.282;22.494;2022-12-05T11:31:20;99964.84;;;0.23;90.50
75650;BME280;64245;51.282;22.494;2022-12-05T11:34:03;99964.25;;;0.16;90.29
75650;BME280;64245;51.282;22.494;2022-12-05T11:36:39;99962.75;;;0.31;90.74
75650;BME280;64245;51.282;22.494;2022-12-05T11:39:09;99964.53;;;0.30;89.27
75650;BME280;64245;51.282;22.494;2022-12-05T11:41:52;99970.34;;;0.39;89.37
75650;BME280;64245;51.282;22.494;2022-12-05T11:47:44;99960.63;;;0.39;89.46
75650;BME280;64245;51.282;22.494;2022-12-05T11:50:49;99955.53;;;0.34;89.31
75650;BME280;64245;51.282;22.494;2022-12-05T11:53:56;99950.19;;;0.36;90.12
75650;BME280;64245;51.282;22.494;2022-12-05T11:56:37;99930.34;;;0.24;89.91
75650;BME280;64245;51.282;22.494;2022-12-05T11:59:38;99943.06;;;0.16;89.75
75650;BME280;64245;51.282;22.494;2022-12-05T12:05:29;99926.16;;;0.39;89.60
75650;BME280;64245;51.282;22.494;2022-12-05T12:13:19;99917.19;;;0.43;89.52
75650;BME280;64245;51.282;22.494;2022-12-05T12:29:41;99885.56;;;0.39;89.32
75650;BME280;64245;51.282;22.494;2022-12-05T12:32:31;99881.81;;;0.24;89.30
75650;BME280;64245;51.282;22.494;2022-12-05T12:35:31;99891.66;;;0.41;89.49
75650;BME280;64245;51.282;22.494;2022-12-05T12:38:23;99888.50;;;0.32;90.39
75650;BME280;64245;51.282;22.494;2022-12-05T12:40:55;99860.97;;;0.16;89.59
75650;BME280;64245;51.282;22.494;2022-12-05T12:51:42;99872.25;;;0.20;89.77
75650;BME280;64245;51.282;22.494;2022-12-05T12:56:59;99883.22;;;0.32;89.03
75650;BME280;64245;51.282;22.494;2022-12-05T13:02:45;99880.41;;;0.15;89.88
75650;BME280;64245;51.282;22.494;2022-12-05T13:06:03;99890.91;;;0.18;89.93
75650;BME280;64245;51.282;22.494;2022-12-05T13:08:15;99894.41;;;0.19;89.97
75650;BME280;64245;51.282;22.494;2022-12-05T13:10:45;99883.00;;;0.17;90.54
75650;BME280;64245;51.282;22.494;2022-12-05T13:13:16;99875.69;;;0.22;90.31
75650;BME280;64245;51.282;22.494;2022-12-05T13:15:46;99865.72;;;0.08;90.00
75650;BME280;64245;51.282;22.494;2022-12-05T13:18:17;99884.38;;;0.25;89.75
75650;BME280;64245;51.282;22.494;2022-12-05T13:20:45;99872.88;;;0.26;89.36
75650;BME280;64245;51.282;22.494;2022-12-05T13:23:16;99876.00;;;0.16;89.47
75650;BME280;64245;51.282;22.494;2022-12-05T13:25:43;99871.69;;;0.13;90.23
75650;BME280;64245;51.282;22.494;2022-12-05T13:30:49;99865.47;;;0.14;89.82
75650;BME280;64245;51.282;22.494;2022-12-05T13:33:49;99875.00;;;0.18;90.03
75650;BME280;64245;51.282;22.494;2022-12-05T13:36:18;99868.75;;;0.19;89.61
75650;BME280;64245;51.282;22.494;2022-12-05T13:39:05;99879.88;;;0.27;89.46
75650;BME280;64245;51.282;22.494;2022-12-05T13:41:53;99861.34;;;0.07;90.37
75650;BME280;64245;51.282;22.494;2022-12-05T13:44:44;99869.22;;;0.09;89.79
75650;BME280;64245;51.282;22.494;2022-12-05T13:47:24;99860.28;;;0.11;90.48
75650;BME280;64245;51.282;22.494;2022-12-05T13:49:55;99879.75;;;0.10;89.52
75650;BME280;64245;51.282;22.494;2022-12-05T13:52:28;99850.94;;;0.03;91.01
75650;BME280;64245;51.282;22.494;2022-12-05T13:57:43;99874.91;;;0.20;89.99
75650;BME280;64245;51.282;22.494;2022-12-05T14:02:59;99882.00;;;0.19;89.97
75650;BME280;64245;51.282;22.494;2022-12-05T14:05:40;99872.25;;;0.20;90.13
75650;BME280;64245;51.282;22.494;2022-12-05T14:15:53;99877.47;;;0.01;90.84
75650;BME280;64245;51.282;22.494;2022-12-05T14:21:20;99878.69;;;0.14;90.11
75650;BME280;64245;51.282;22.494;2022-12-05T14:23:52;99883.38;;;0.08;90.48
75650;BME280;64245;51.282;22.494;2022-12-05T14:26:32;99875.56;;;0.05;90.71
75650;BME280;64245;51.282;22.494;2022-12-05T14:31:46;99865.56;;;-0.09;91.52
75650;BME280;64245;51.282;22.494;2022-12-05T14:34:17;99881.13;;;-0.02;91.26
75650;BME280;64245;51.282;22.494;2022-12-05T14:39:42;99868.88;;;-0.04;91.29
75650;BME280;64245;51.282;22.494;2022-12-05T14:44:56;99850.84;;;-0.16;91.41
75650;BME280;64245;51.282;22.494;2022-12-05T14:47:26;99836.91;;;-0.20;91.70
75650;BME280;64245;51.282;22.494;2022-12-05T14:52:27;99861.25;;;-0.12;91.38
75650;BME280;64245;51.282;22.494;2022-12-05T14:55:01;99853.13;;;-0.07;91.36
75650;BME280;64245;51.282;22.494;2022-12-05T14:57:29;99841.47;;;-0.23;91.95
75650;BME280;64245;51.282;22.494;2022-12-05T15:00:01;99844.69;;;-0.17;91.35
75650;BME280;64245;51.282;22.494;2022-12-05T15:02:41;99847.94;;;-0.10;91.07